createdAt,value
2023-09-08T00:00:24.286Z,3.35
2023-09-08T00:02:53.153Z,3.40
2023-09-08T00:05:21.766Z,3.50
2023-09-08T00:07:50.623Z,3.28
2023-09-08T00:10:19.226Z,3.60
2023-09-08T00:12:47.858Z,3.65
2023-09-08T00:15:16.341Z,4.20
2023-09-08T00:17:44.417Z,3.25
2023-09-08T00:20:13.303Z,5.53
2023-09-08T00:22:42.270Z,3.90
2023-09-08T00:25:11.104Z,6.25
2023-09-08T00:27:39.687Z,3.55
2023-09-08T00:30:09.369Z,5.68
2023-09-08T00:32:38.182Z,3.45
2023-09-08T00:35:13.269Z,5.70
2023-09-08T00:37:43.085Z,3.65
2023-09-08T00:40:13.204Z,3.97
2023-09-08T00:42:41.760Z,3.55
2023-09-08T00:45:10.895Z,3.70
2023-09-08T00:47:39.646Z,3.38
2023-09-08T00:50:09.024Z,3.80
2023-09-08T00:52:38.089Z,3.42
2023-09-08T00:55:07.255Z,4.03
2023-09-08T00:57:36.094Z,3.97
2023-09-08T01:00:08.124Z,4.05
2023-09-08T01:02:36.917Z,3.90
2023-09-08T01:05:05.696Z,3.80
2023-09-08T01:07:35.413Z,3.70
2023-09-08T01:10:08.596Z,3.53
2023-09-08T01:12:37.395Z,3.83
2023-09-08T01:15:10.084Z,3.83
2023-09-08T01:17:38.865Z,4.00
2023-09-08T01:20:31.320Z,4.28
2023-09-08T01:23:11.529Z,3.78
2023-09-08T01:26:07.373Z,3.63
2023-09-08T01:28:36.638Z,3.53
2023-09-08T01:31:06.352Z,3.75
2023-09-08T01:33:35.791Z,4.18
2023-09-08T01:36:04.468Z,3.65
2023-09-08T01:38:33.552Z,3.83
2023-09-08T01:41:04.149Z,3.83
2023-09-08T01:43:32.765Z,4.28
2023-09-08T01:46:00.806Z,4.20
2023-09-08T01:48:29.813Z,4.18
2023-09-08T01:50:58.321Z,3.70
2023-09-08T01:53:26.814Z,4.18
2023-09-08T01:55:55.423Z,4.30
2023-09-08T01:58:24.164Z,4.10
2023-09-08T02:00:56.312Z,3.90
2023-09-08T02:03:25.043Z,3.50
2023-09-08T02:05:54.268Z,3.95
2023-09-08T02:08:22.866Z,3.95
2023-09-08T02:10:51.381Z,4.10
2023-09-08T02:13:19.980Z,4.20
2023-09-08T02:15:48.963Z,4.32
2023-09-08T02:18:17.615Z,4.13
2023-09-08T02:20:46.164Z,4.07
2023-09-08T02:23:14.885Z,4.18
2023-09-08T02:25:43.415Z,4.25
2023-09-08T02:28:11.965Z,4.20
2023-09-08T02:30:40.504Z,4.10
2023-09-08T02:33:08.928Z,4.05
2023-09-08T02:35:43.899Z,4.18
2023-09-08T02:38:12.912Z,4.50
2023-09-08T02:40:41.401Z,3.75
2023-09-08T02:43:10.050Z,4.10
2023-09-08T02:45:38.689Z,4.63
2023-09-08T02:48:07.595Z,3.88
2023-09-08T02:50:36.217Z,4.10
2023-09-08T02:53:04.822Z,3.50
2023-09-08T02:55:33.493Z,3.88
2023-09-08T02:58:02.010Z,4.30
2023-09-08T03:00:30.546Z,3.72
2023-09-08T03:02:59.144Z,3.90
2023-09-08T03:05:28.447Z,4.03
2023-09-08T03:07:57.211Z,4.18
2023-09-08T03:10:25.844Z,3.88
2023-09-08T03:12:54.455Z,4.05
2023-09-08T03:15:23.600Z,4.00
2023-09-08T03:17:52.240Z,4.05
2023-09-08T03:20:20.963Z,3.78
2023-09-08T03:22:49.785Z,4.13
2023-09-08T03:25:18.393Z,3.88
2023-09-08T03:27:47.099Z,3.90
2023-09-08T03:30:16.062Z,3.80
2023-09-08T03:32:44.550Z,4.38
2023-09-08T03:35:13.207Z,3.90
2023-09-08T03:37:41.832Z,3.55
2023-09-08T03:40:11.472Z,4.18
2023-09-08T03:42:40.166Z,3.83
2023-09-08T03:45:09.226Z,3.97
2023-09-08T03:47:37.848Z,4.25
2023-09-08T03:50:06.896Z,4.05
2023-09-08T03:52:35.567Z,4.50
2023-09-08T03:55:04.311Z,4.45
2023-09-08T03:57:33.393Z,4.20
2023-09-08T04:00:01.989Z,4.57
2023-09-08T04:02:30.386Z,4.20
2023-09-08T04:04:59.140Z,4.47
2023-09-08T04:07:28.094Z,4.00
2023-09-08T04:09:56.736Z,4.43
2023-09-08T04:12:25.353Z,4.15
2023-09-08T04:14:54.077Z,4.70
2023-09-08T04:17:22.903Z,4.68
2023-09-08T04:19:52.116Z,4.47
2023-09-08T04:22:20.347Z,3.85
2023-09-08T04:24:48.866Z,4.50
2023-09-08T04:27:17.426Z,4.75
2023-09-08T04:29:46.067Z,4.30
2023-09-08T04:32:14.614Z,4.13
2023-09-08T04:34:44.802Z,4.32
2023-09-08T04:37:13.478Z,4.30
2023-09-08T04:39:42.287Z,4.05
2023-09-08T04:42:10.893Z,4.80
2023-09-08T04:44:39.431Z,4.68
2023-09-08T04:47:07.702Z,4.47
2023-09-08T04:49:36.404Z,4.22
2023-09-08T04:52:05.208Z,4.63
2023-09-08T04:54:34.265Z,4.97
2023-09-08T04:57:16.196Z,4.53
2023-09-08T04:59:51.236Z,4.70
2023-09-08T05:02:21.227Z,4.63
2023-09-08T05:04:50.304Z,4.70
2023-09-08T05:07:21.405Z,4.80
2023-09-08T05:09:50.122Z,4.50
2023-09-08T05:12:18.793Z,4.68
2023-09-08T05:14:47.663Z,4.60
2023-09-08T05:17:16.217Z,4.70
2023-09-08T05:19:44.731Z,4.53
2023-09-08T05:22:13.372Z,4.57
2023-09-08T05:24:41.978Z,5.35
2023-09-08T05:27:10.562Z,4.88
2023-09-08T05:29:39.222Z,4.88
2023-09-08T05:32:07.803Z,4.70
2023-09-08T05:34:36.734Z,4.68
2023-09-08T05:37:05.443Z,4.60
2023-09-08T05:39:34.063Z,4.20
2023-09-08T05:42:02.654Z,4.45
2023-09-08T05:44:31.234Z,5.40
2023-09-08T05:47:00.461Z,5.30
2023-09-08T05:49:29.277Z,4.50
2023-09-08T05:51:58.001Z,4.80
2023-09-08T05:54:26.857Z,4.63
2023-09-08T05:56:55.415Z,4.90
2023-09-08T05:59:24.034Z,5.30
2023-09-08T06:01:52.782Z,4.90
2023-09-08T06:04:21.328Z,5.15
2023-09-08T06:06:50.187Z,5.00
2023-09-08T06:09:19.271Z,5.07
2023-09-08T06:11:48.546Z,5.00
2023-09-08T06:14:17.132Z,5.00
2023-09-08T06:16:45.795Z,4.50
2023-09-08T06:19:15.028Z,4.85
2023-09-08T06:21:43.572Z,5.18
2023-09-08T06:24:11.602Z,4.85
2023-09-08T06:26:41.131Z,5.05
2023-09-08T06:29:10.030Z,5.07
2023-09-08T06:31:38.685Z,4.85
2023-09-08T06:34:07.446Z,4.45
2023-09-08T06:36:36.112Z,5.05
2023-09-08T06:39:06.343Z,4.80
2023-09-08T06:41:34.936Z,5.00
2023-09-08T06:44:03.499Z,5.00
2023-09-08T06:46:32.173Z,5.07
2023-09-08T06:49:02.314Z,4.78
2023-09-08T06:51:32.582Z,4.90
2023-09-08T06:54:02.632Z,5.03
2023-09-08T06:56:31.798Z,4.90
2023-09-08T06:59:00.475Z,5.22
2023-09-08T07:01:29.398Z,4.93
2023-09-08T07:03:58.279Z,5.13
2023-09-08T07:06:27.026Z,5.35
2023-09-08T07:08:56.207Z,4.93
2023-09-08T07:11:24.902Z,5.55
2023-09-08T07:13:53.544Z,5.25
2023-09-08T07:16:22.305Z,4.78
2023-09-08T07:18:50.942Z,4.90
2023-09-08T07:21:19.750Z,4.70
2023-09-08T07:23:48.541Z,5.13
2023-09-08T07:26:17.167Z,5.75
2023-09-08T07:28:45.851Z,5.53
2023-09-08T07:31:14.724Z,4.70
2023-09-08T07:33:43.488Z,5.00
2023-09-08T07:36:12.796Z,5.15
2023-09-08T07:38:41.493Z,5.68
2023-09-08T07:41:10.311Z,5.53
2023-09-08T07:43:42.883Z,5.25
2023-09-08T07:46:11.539Z,5.68
2023-09-08T07:48:40.469Z,5.40
2023-09-08T07:51:09.383Z,5.43
2023-09-08T07:53:38.539Z,5.32
2023-09-08T07:56:07.425Z,5.30
2023-09-08T07:58:36.470Z,5.32
2023-09-08T08:01:05.308Z,4.95
2023-09-08T08:03:33.927Z,5.32
2023-09-08T08:06:02.568Z,5.07
2023-09-08T08:08:31.276Z,5.18
2023-09-08T08:11:00.057Z,5.28
2023-09-08T08:13:28.827Z,5.38
2023-09-08T08:15:57.373Z,5.40
2023-09-08T08:18:26.097Z,5.60
2023-09-08T08:20:54.959Z,5.50
2023-09-08T08:23:23.529Z,5.18
2023-09-08T08:25:52.614Z,5.47
2023-09-08T08:28:21.216Z,5.00
2023-09-08T08:30:50.010Z,5.20
2023-09-08T08:33:18.822Z,5.00
2023-09-08T08:35:54.810Z,4.80
2023-09-08T08:38:23.493Z,4.78
2023-09-08T08:40:52.070Z,4.70
2023-09-08T08:43:21.814Z,5.40
2023-09-08T08:45:51.936Z,4.60
2023-09-08T08:48:23.509Z,4.55
2023-09-08T08:50:53.416Z,4.70
2023-09-08T08:53:23.654Z,5.15
2023-09-08T08:55:56.342Z,5.03
2023-09-08T08:58:28.894Z,4.90
2023-09-08T09:00:59.827Z,4.70
2023-09-08T09:03:33.543Z,4.88
2023-09-08T09:06:03.127Z,5.15
2023-09-08T09:08:32.566Z,5.10
2023-09-08T09:11:01.204Z,5.25
2023-09-08T09:13:29.832Z,5.03
2023-09-08T09:16:03.703Z,4.80
2023-09-08T09:18:33.587Z,4.80
2023-09-08T09:21:04.032Z,5.38
2023-09-08T09:23:37.238Z,4.90
2023-09-08T09:28:50.426Z,5.05
2023-09-08T09:31:19.039Z,5.00
2023-09-08T09:33:48.101Z,5.50
2023-09-08T09:36:23.720Z,4.82
2023-09-08T09:38:52.512Z,5.43
2023-09-08T09:41:21.103Z,4.93
2023-09-08T09:43:50.046Z,4.80
2023-09-08T09:46:18.710Z,4.88
2023-09-08T09:48:47.258Z,5.05
2023-09-08T09:51:20.948Z,5.03
2023-09-08T09:53:50.972Z,5.53
2023-09-08T09:56:25.549Z,4.78
2023-09-08T09:58:56.550Z,5.00
2023-09-08T10:01:27.581Z,4.72
2023-09-08T10:03:57.628Z,5.00
2023-09-08T10:06:28.602Z,4.85
2023-09-08T10:08:57.731Z,4.20
2023-09-08T10:11:31.724Z,5.43
2023-09-08T10:14:02.698Z,4.28
2023-09-08T10:16:37.146Z,4.63
2023-09-08T10:19:11.246Z,5.20
2023-09-08T10:21:45.419Z,5.20
2023-09-08T10:24:47.541Z,5.18
2023-09-08T10:27:21.546Z,5.30
2023-09-08T10:29:51.227Z,5.50
2023-09-08T10:32:20.985Z,5.30
2023-09-08T10:34:51.427Z,4.85
2023-09-08T10:37:28.089Z,5.38
2023-09-08T10:39:57.177Z,4.72
2023-09-08T10:42:29.196Z,4.85
2023-09-08T10:45:04.637Z,5.07
2023-09-08T10:47:56.624Z,5.00
2023-09-08T10:50:36.659Z,4.63
2023-09-08T10:53:21.593Z,4.15
2023-09-08T10:56:15.947Z,4.80
2023-09-08T10:58:45.253Z,5.15
2023-09-08T11:01:21.722Z,4.90
2023-09-08T11:03:52.751Z,4.95
2023-09-08T11:06:26.129Z,4.55
2023-09-08T11:11:28.079Z,4.63
2023-09-08T11:13:56.664Z,4.57
2023-09-08T11:16:31.371Z,4.90
2023-09-08T11:19:00.325Z,4.30
2023-09-08T11:21:29.362Z,4.70
2023-09-08T11:23:58.332Z,4.70
2023-09-08T11:26:27.066Z,4.90
2023-09-08T11:28:56.749Z,4.63
2023-09-08T11:31:25.302Z,4.82
2023-09-08T11:33:57.549Z,4.60
2023-09-08T11:36:26.104Z,4.75
2023-09-08T11:38:55.326Z,5.10
2023-09-08T11:41:26.406Z,4.82
2023-09-08T11:43:55.306Z,4.55
2023-09-08T11:46:24.551Z,4.70
2023-09-08T11:48:53.214Z,5.18
2023-09-08T11:51:26.232Z,5.10
2023-09-08T11:53:55.607Z,5.30
2023-09-08T11:56:24.407Z,5.05
2023-09-08T11:58:54.154Z,5.28
2023-09-08T12:01:23.041Z,4.65
2023-09-08T12:04:00.459Z,4.95
2023-09-08T12:06:32.812Z,4.70
2023-09-08T12:09:06.990Z,4.90
2023-09-08T12:11:43.838Z,4.95
2023-09-08T12:14:17.001Z,4.88
2023-09-08T12:16:46.330Z,4.78
2023-09-08T12:19:34.238Z,4.78
2023-09-08T12:22:05.370Z,4.20
2023-09-08T12:24:52.573Z,5.07
2023-09-08T12:27:22.190Z,4.63
2023-09-08T12:30:02.888Z,4.47
2023-09-08T12:32:33.647Z,5.63
2023-09-08T12:35:05.299Z,5.50
2023-09-08T12:37:36.216Z,5.05
2023-09-08T12:40:05.205Z,4.50
2023-09-08T12:42:35.651Z,4.60
2023-09-08T12:45:08.182Z,5.40
2023-09-08T12:47:37.901Z,4.97
2023-09-08T12:50:07.474Z,5.05
2023-09-08T12:52:36.262Z,4.60
2023-09-08T12:55:04.995Z,4.68
2023-09-08T12:57:33.854Z,5.38
2023-09-08T13:00:02.557Z,4.90
2023-09-08T13:02:31.381Z,5.13
2023-09-08T13:05:00.575Z,5.53
2023-09-08T13:07:29.680Z,5.10
2023-09-08T13:09:58.369Z,5.20
2023-09-08T13:12:27.432Z,4.53
2023-09-08T13:14:56.286Z,4.88
2023-09-08T13:17:24.968Z,4.68
2023-09-08T13:19:53.610Z,5.10
2023-09-08T13:22:22.181Z,4.80
2023-09-08T13:24:50.703Z,5.30
2023-09-08T13:27:20.462Z,5.30
2023-09-08T13:29:48.977Z,5.65
2023-09-08T13:32:17.942Z,4.18
2023-09-08T13:34:46.898Z,5.13
2023-09-08T13:37:17.281Z,4.50
2023-09-08T13:39:45.711Z,4.85
2023-09-08T13:42:14.338Z,4.70
2023-09-08T13:44:42.831Z,4.88
2023-09-08T13:47:11.723Z,5.10
2023-09-08T13:49:41.543Z,4.22
2023-09-08T13:52:12.420Z,4.97
2023-09-08T13:54:45.259Z,4.32
2023-09-08T13:57:14.796Z,4.60
2023-09-08T13:59:43.878Z,4.85
2023-09-08T14:04:48.775Z,4.57
2023-09-08T14:07:22.556Z,4.68
2023-09-08T14:10:05.329Z,4.45
2023-09-08T14:12:35.967Z,5.10
2023-09-08T14:15:05.755Z,4.35
2023-09-08T14:17:34.284Z,4.57
2023-09-08T14:20:02.991Z,4.80
2023-09-08T14:22:31.575Z,4.40
2023-09-08T14:25:00.194Z,5.10
2023-09-08T14:27:28.702Z,4.57
2023-09-08T14:29:57.436Z,5.13
2023-09-08T14:32:25.816Z,4.65
2023-09-08T14:34:54.523Z,4.47
2023-09-08T14:37:23.202Z,4.60
2023-09-08T14:39:51.956Z,4.55
2023-09-08T14:42:20.516Z,4.15
2023-09-08T14:44:49.172Z,4.28
2023-09-08T14:47:17.726Z,4.72
2023-09-08T14:49:46.331Z,4.20
2023-09-08T14:52:14.838Z,4.40
2023-09-08T14:54:43.763Z,4.60
2023-09-08T14:57:12.172Z,5.13
2023-09-08T14:59:40.700Z,4.88
2023-09-08T15:02:11.533Z,4.60
2023-09-08T15:04:40.406Z,4.32
2023-09-08T15:07:09.321Z,4.63
2023-09-08T15:09:38.711Z,4.25
2023-09-08T15:12:07.834Z,3.97
2023-09-08T15:14:36.446Z,3.78
2023-09-08T15:17:05.299Z,3.63
2023-09-08T15:19:33.914Z,3.70
2023-09-08T15:22:02.505Z,3.75
2023-09-08T15:24:31.078Z,3.20
2023-09-08T15:26:59.722Z,3.88
2023-09-08T15:29:28.313Z,3.78
2023-09-08T15:31:57.028Z,2.83
2023-09-08T15:34:27.451Z,3.00
2023-09-08T15:36:56.321Z,3.40
2023-09-08T15:39:24.978Z,3.67
2023-09-08T15:41:53.521Z,3.38
2023-09-08T15:44:22.045Z,3.30
2023-09-08T15:46:50.444Z,3.50
2023-09-08T15:49:21.113Z,3.13
2023-09-08T15:51:57.293Z,2.83
2023-09-08T15:54:32.794Z,3.03
2023-09-08T15:57:01.501Z,3.33
2023-09-08T15:59:30.057Z,3.10
2023-09-08T16:01:58.656Z,3.33
2023-09-08T16:04:27.486Z,3.47
2023-09-08T16:06:56.500Z,2.95
2023-09-08T16:09:25.438Z,2.85
2023-09-08T16:11:54.043Z,3.20
2023-09-08T16:14:22.561Z,2.65
2023-09-08T16:16:51.387Z,3.00
2023-09-08T16:19:20.645Z,3.00
2023-09-08T16:21:49.200Z,3.00
2023-09-08T16:24:17.723Z,3.08
2023-09-08T16:26:46.765Z,3.28
2023-09-08T16:29:15.359Z,3.40
2023-09-08T16:31:43.860Z,3.03
2023-09-08T16:34:12.218Z,2.78
2023-09-08T16:36:40.596Z,3.53
2023-09-08T16:39:09.164Z,3.40
2023-09-08T16:41:37.759Z,3.47
2023-09-08T16:44:06.455Z,4.53
2023-09-08T16:46:35.123Z,3.55
2023-09-08T16:49:03.504Z,3.40
2023-09-08T16:51:32.209Z,3.58
2023-09-08T16:54:00.801Z,3.38
2023-09-08T16:56:29.500Z,3.58
2023-09-08T16:58:58.002Z,4.30
2023-09-08T17:01:26.595Z,3.63
2023-09-08T17:03:55.549Z,3.75
2023-09-08T17:06:24.687Z,3.67
2023-09-08T17:08:53.365Z,4.75
2023-09-08T17:11:21.720Z,4.25
2023-09-08T17:13:50.237Z,4.07
2023-09-08T17:16:19.002Z,4.07
2023-09-08T17:18:47.812Z,4.97
2023-09-08T17:21:16.532Z,5.40
2023-09-08T17:23:45.182Z,5.03
2023-09-08T17:26:15.067Z,5.93
2023-09-08T17:28:43.650Z,5.65
2023-09-08T17:31:12.280Z,6.18
2023-09-08T17:33:41.048Z,5.88
2023-09-08T17:36:10.002Z,6.38
2023-09-08T17:38:38.969Z,6.32
2023-09-08T17:41:07.360Z,5.20
2023-09-08T17:43:36.117Z,6.15
2023-09-08T17:46:05.242Z,4.97
2023-09-08T17:48:33.858Z,4.10
2023-09-08T17:51:02.398Z,4.28
2023-09-08T17:53:31.004Z,3.92
2023-09-08T17:55:59.477Z,4.60
2023-09-08T17:58:27.834Z,4.45
2023-09-08T18:00:56.485Z,4.72
2023-09-08T18:03:25.233Z,4.15
2023-09-08T18:05:54.327Z,3.72
2023-09-08T18:08:22.816Z,4.50
2023-09-08T18:10:51.526Z,4.28
2023-09-08T18:13:20.771Z,4.22
2023-09-08T18:15:49.415Z,3.95
2023-09-08T18:18:17.879Z,3.70
2023-09-08T18:20:46.452Z,3.20
2023-09-08T18:23:15.027Z,3.60
2023-09-08T18:25:43.465Z,3.40
2023-09-08T18:28:12.062Z,3.30
2023-09-08T18:30:42.963Z,3.67
2023-09-08T18:33:12.471Z,3.53
2023-09-08T18:35:42.423Z,3.00
2023-09-08T18:38:11.395Z,3.33
2023-09-08T18:40:46.629Z,3.20
2023-09-08T18:43:20.419Z,3.38
2023-09-08T18:45:49.163Z,3.10
2023-09-08T18:48:17.808Z,2.97
2023-09-08T18:50:46.412Z,2.80
2023-09-08T18:53:14.775Z,2.90
2023-09-08T18:55:43.367Z,3.00
2023-09-08T18:58:12.102Z,2.92
2023-09-08T19:00:45.996Z,3.53
2023-09-08T19:03:14.889Z,3.38
2023-09-08T19:05:44.129Z,2.80
2023-09-08T19:08:12.731Z,2.72
2023-09-08T19:10:41.352Z,2.80
2023-09-08T19:13:13.984Z,2.58
2023-09-08T19:15:42.988Z,2.47
2023-09-08T19:18:11.643Z,2.30
2023-09-08T19:20:40.815Z,2.65
2023-09-08T19:23:10.532Z,2.38
2023-09-08T19:25:44.600Z,2.75
2023-09-08T19:28:16.276Z,2.72
2023-09-08T19:30:52.886Z,2.63
2023-09-08T19:33:21.565Z,2.95
2023-09-08T19:35:50.601Z,2.97
2023-09-08T19:38:22.151Z,2.80
2023-09-08T19:40:50.746Z,2.63
2023-09-08T19:43:19.276Z,2.45
2023-09-08T19:45:47.873Z,2.25
2023-09-08T19:48:16.295Z,2.30
2023-09-08T19:50:46.424Z,2.50
2023-09-08T19:53:14.962Z,2.17
2023-09-08T19:55:43.473Z,2.20
2023-09-08T19:58:11.870Z,2.35
2023-09-08T20:00:41.296Z,2.35
2023-09-08T20:03:09.894Z,2.47
2023-09-08T20:05:39.109Z,2.05
2023-09-08T20:08:07.116Z,2.05
2023-09-08T20:10:35.524Z,2.40
2023-09-08T20:13:04.956Z,2.10
2023-09-08T20:15:34.597Z,3.10
2023-09-08T20:18:04.957Z,2.63
2023-09-08T20:20:33.601Z,2.20
2023-09-08T20:23:02.685Z,2.70
2023-09-08T20:25:31.275Z,2.50
2023-09-08T20:27:59.775Z,2.70
2023-09-08T20:30:28.394Z,2.67
2023-09-08T20:32:56.955Z,2.33
2023-09-08T20:35:25.518Z,2.78
2023-09-08T20:37:54.170Z,2.63
2023-09-08T20:40:22.547Z,2.88
2023-09-08T20:42:51.480Z,2.83
2023-09-08T20:45:20.081Z,2.72
2023-09-08T20:47:50.953Z,2.58
2023-09-08T20:50:19.955Z,2.28
2023-09-08T20:52:47.891Z,2.90
2023-09-08T20:55:16.704Z,2.72
2023-09-08T20:57:45.281Z,2.65
2023-09-08T21:00:14.528Z,2.70
2023-09-08T21:02:43.214Z,2.60
2023-09-08T21:05:12.745Z,2.90
2023-09-08T21:07:41.277Z,3.00
2023-09-08T21:10:10.207Z,3.05
2023-09-08T21:12:38.945Z,2.85
2023-09-08T21:15:08.295Z,2.97
2023-09-08T21:17:36.886Z,3.08
2023-09-08T21:20:07.085Z,2.50
2023-09-08T21:22:35.678Z,2.70
2023-09-08T21:25:04.799Z,2.65
2023-09-08T21:27:33.338Z,2.88
2023-09-08T21:30:01.757Z,2.45
2023-09-08T21:32:30.357Z,2.90
2023-09-08T21:34:58.829Z,3.13
2023-09-08T21:37:27.313Z,3.35
2023-09-08T21:39:56.027Z,2.70
2023-09-08T21:42:24.631Z,2.60
2023-09-08T21:44:53.246Z,2.75
2023-09-08T21:47:21.824Z,2.70
2023-09-08T21:49:50.315Z,2.78
2023-09-08T21:52:28.011Z,2.80
2023-09-08T21:55:04.642Z,2.80
2023-09-08T21:57:33.219Z,3.33
2023-09-08T22:00:01.726Z,2.63
2023-09-08T22:02:30.529Z,2.55
2023-09-08T22:04:59.990Z,2.90
2023-09-08T22:07:28.589Z,2.55
2023-09-08T22:09:57.374Z,3.00
2023-09-08T22:12:25.557Z,2.75
2023-09-08T22:14:54.815Z,3.28
2023-09-08T22:17:22.728Z,2.80
2023-09-08T22:19:52.243Z,2.60
2023-09-08T22:22:21.146Z,2.53
2023-09-08T22:24:49.752Z,2.65
2023-09-08T22:27:18.368Z,2.72
2023-09-08T22:29:46.904Z,2.78
2023-09-08T22:32:15.404Z,2.83
2023-09-08T22:34:43.945Z,2.90
2023-09-08T22:37:12.628Z,3.30
2023-09-08T22:39:41.185Z,2.95
2023-09-08T22:42:09.776Z,2.70
2023-09-08T22:44:38.263Z,2.85
2023-09-08T22:47:12.405Z,3.03
2023-09-08T22:50:01.811Z,2.97
2023-09-08T22:52:33.360Z,2.70
2023-09-08T22:55:13.056Z,3.00
2023-09-08T22:57:51.487Z,3.08
2023-09-08T23:00:20.184Z,2.85
2023-09-08T23:02:49.186Z,3.10
2023-09-08T23:05:18.072Z,3.08
2023-09-08T23:07:47.051Z,3.20
2023-09-08T23:10:16.243Z,3.15
2023-09-08T23:12:45.358Z,2.70
2023-09-08T23:15:14.073Z,2.88
2023-09-08T23:17:42.813Z,3.10
2023-09-08T23:20:17.409Z,3.10
2023-09-08T23:22:46.679Z,3.08
2023-09-08T23:25:15.355Z,2.80
2023-09-08T23:27:43.842Z,3.58
2023-09-08T23:30:12.932Z,2.90
2023-09-08T23:32:43.455Z,2.90
2023-09-08T23:35:14.362Z,3.17
2023-09-08T23:37:43.138Z,3.20
2023-09-08T23:40:14.639Z,3.00
2023-09-08T23:42:43.211Z,3.15
2023-09-08T23:45:12.204Z,2.70
2023-09-08T23:47:41.227Z,3.00
2023-09-08T23:50:10.548Z,2.90
2023-09-08T23:52:39.159Z,3.30
2023-09-08T23:55:07.516Z,3.17
2023-09-08T23:57:36.140Z,2.85
